Snow Creek, CA

4:57 AM PST on December 06, 2016 (GMT -0800)
Racquet Club Estates | | Change Station
Active Advisory: Wind Advisory

Elev 581 ft 33.85 °N, 116.54 °W | Updated 5 seconds ago

Clear
Clear
55.0 °F
Feels Like 55.0 °F
N
5.0
Wind Variable Wind from West

Today
High -- | Low -- °F
--% Chance of Precip.
Yesterday
High -- | Low -- °F
Precip. -- in
Pressure 29.88 in
Visibility 10.0 miles
Clouds Clear
Dew Point 40 °F
Humidity 56%
Rainfall 0.00 in
Snow Depth Not available.
6:38 AM 4:37 PM
Waxing Crescent, 41% visible
METAR KPSP 061253Z 00000KT 10SM CLR 11/M01 A2987 RMK AO2 SLP116 T01061011
Pressure 29.88 in
Visibility 10.0 miles
Clouds Clear
Dew Point 40 °F
Humidity 56%
Rainfall 0.00 in
Snow Depth Not available.
6:38 AM 4:37 PM
Waxing Crescent, 41% visible
METAR KPSP 061253Z 00000KT 10SM CLR 11/M01 A2987 RMK AO2 SLP116 T01061011

10-Day Weather Forecast

Almanac

Astronomy

Dec. 06, 2016 Rise Set
Actual Time
Civil Twilight
Nautical Twilight
Astronomical Twilight
Moon
Length of Visible Light
Length of Day
Tomorrow will be .
, % of the Moon is Illuminated

Today's Extremes

State Highs State Lows

Community

WunderPhotos

Upload Photos

1,955,938 photos uploaded!

WunderBlog® & News

Nearby

Air Quality

  Air Quality AQ Index Pollutant
Not available.

Snow Depth

Station Depth Elevation

Earthquake Activity

City Distance Mag. Time & Date
Minimum magnitude displayed is 2.5.

Coastal Water Temperatures

Place Temperature

Stations

Nearby Weather Stations

Station Location Temp. Windchill Dew Point Humidity Wind Precip. Elev Updated Type
                   

Watches & Warnings

Wind Advisory
Issued: 3:51 AM PST Dec. 6, 2016 – National Weather Service

... Wind Advisory in effect from 10 am this morning to 3 am PST
Wednesday...

The National Weather Service in San Diego has issued a Wind
Advisory... which is in effect from 10 am this morning to 3 am PST
Wednesday.

* Winds... areas of west winds 20 to 30 mph with gusts to 50 mph.
Isolated gusts to 60 mph.

* Timing... winds strengthening today... strongest this
evening... then gradually subsiding late tonight.

* Location... strongest winds near Mountain Ridge tops and along
Desert Mountain slopes into adjacent desert areas.

* Visibility... locally reduced in blowing sand and blowing dust in
the deserts.

* Impacts... hazardous driving for high profile vehicles.

Precautionary/preparedness actions...

A Wind Advisory means that winds of 35 mph are expected. Winds
this strong can make driving difficult... especially for high
profile vehicles. Use extra caution.



17